Solonopole, Brazil
Current Conditions -  °F | °C
As of 4:00 AM on Saturday 20 Dec 2014 (Local Time) from SBJU Reporting Station
Broken Clouds Broken Clouds  
Wind Chill: 81°   Ceiling: 2000
Heat Index: 86°   Visibility: 6mi
Dew Point: 75°   Wind: 6mph
Humidity: 84%   Direction: 60°ENE
Pressure: 29.97"   Gusts: NA
Location:  5.73°S, 39.01°W
Report Text: SBJU 200700Z 06005KT 9999 BKN020 27/24 Q1015
Loading
Personal Weather Stations






























Interactive Weather Map New forecast layout! Learn more

10-Day Weather Forecast

Advertisements
Track Severe Weather on mobile